Time;durP1;ratioP1;P1;durP2;ratioP2;P2;SDS_P1;SDS_P2;PMS_P1;PMS_P2;Temp;Humidity;BMP_temperature;BMP_pressure;BME280_temperature;BME280_humidity;BME280_pressure;Samples;Min_cycle;Max_cycle;Signal;HPM_P1;HPM_P2
2023/10/14 00:02:07;;;;;;;26.67;12.35;;;;;;;20.64;71.87;97927.22;4379602;32;20160;-77
2023/10/14 00:04:34;;;;;;;27.80;12.23;;;;;;;20.55;72.41;97912.28;4378662;32;20177;-77
2023/10/14 00:07:08;;;;;;;24.42;12.02;;;;;;;20.19;74.31;97921.41;4379683;32;20151;-77
2023/10/14 00:09:42;;;;;;;25.80;12.13;;;;;;;19.94;75.50;97918.25;4379321;32;20086;-77
2023/10/14 00:12:14;;;;;;;25.12;12.45;;;;;;;20.26;74.45;97914.72;4379758;32;20722;-77
2023/10/14 00:14:45;;;;;;;27.40;13.23;;;;;;;19.70;77.48;97917.66;4378664;32;20161;-77
2023/10/14 00:17:17;;;;;;;29.50;13.82;;;;;;;19.71;77.16;97906.22;4378213;32;20102;-77
2023/10/14 00:19:55;;;;;;;28.15;13.52;;;;;;;20.06;74.77;97900.66;4379672;32;20100;-77
2023/10/14 00:22:26;;;;;;;27.10;13.05;;;;;;;20.05;74.65;97900.81;4379554;32;20095;-77
2023/10/14 00:24:53;;;;;;;29.77;13.93;;;;;;;20.14;73.58;97902.66;4379180;32;20171;-77
2023/10/14 00:27:21;;;;;;;30.37;14.13;;;;;;;20.54;71.73;97901.94;4379511;32;20165;-77
2023/10/14 00:29:50;;;;;;;27.08;12.80;;;;;;;20.12;72.70;97894.09;4379491;32;20488;-77
2023/10/14 00:32:17;;;;;;;27.95;13.07;;;;;;;20.03;73.62;97889.63;4379134;32;20103;-77
2023/10/14 00:34:44;;;;;;;28.48;13.77;;;;;;;20.16;72.90;97885.84;4379342;32;20099;-78
2023/10/14 00:37:11;;;;;;;31.08;13.75;;;;;;;20.46;71.29;97889.47;4379110;32;20102;-77
2023/10/14 00:39:38;;;;;;;28.80;13.62;;;;;;;20.79;69.10;97873.47;4381082;32;20082;-78
2023/10/14 00:42:08;;;;;;;30.10;13.68;;;;;;;20.34;70.81;97874.78;4381195;32;20202;-77
2023/10/14 00:44:38;;;;;;;28.45;14.13;;;;;;;20.47;70.07;97867.56;4380791;32;20121;-78
2023/10/14 00:47:07;;;;;;;32.05;14.55;;;;;;;19.92;73.08;97866.97;4379768;32;20113;-77
2023/10/14 00:49:35;;;;;;;29.40;14.93;;;;;;;20.13;72.25;97856.47;4381172;32;20086;-77
2023/10/14 00:52:11;;;;;;;29.60;13.70;;;;;;;19.90;73.10;97858.41;4380727;32;20473;-77
2023/10/14 00:59:47;;;;;;;31.23;14.80;;;;;;;19.93;72.92;97839.81;4380790;32;20108;-77
2023/10/14 01:02:15;;;;;;;28.23;14.63;;;;;;;19.82;73.11;97847.75;4381115;32;20099;-77
2023/10/14 01:04:49;;;;;;;29.58;14.35;;;;;;;19.75;73.55;97841.34;4379865;32;20107;-77
2023/10/14 01:07:16;;;;;;;30.08;14.30;;;;;;;20.04;72.35;97838.91;4380337;32;20098;-77
2023/10/14 01:12:53;;;;;;;31.85;15.35;;;;;;;19.76;73.72;97833.34;4380541;32;20434;-77
2023/10/14 01:15:21;;;;;;;34.33;14.93;;;;;;;19.47;75.04;97822.69;4378695;32;20493;-77
2023/10/14 01:17:52;;;;;;;32.35;15.60;;;;;;;19.59;74.93;97820.87;4380890;32;20469;-77
2023/10/14 01:22:55;;;;;;;30.35;14.75;;;;;;;19.43;76.26;97802.94;4379808;32;20107;-77
2023/10/14 01:25:26;;;;;;;32.50;14.38;;;;;;;19.78;74.79;97805.28;4380959;32;20125;-77
2023/10/14 01:27:52;;;;;;;29.17;14.73;;;;;;;19.65;75.46;97797.63;4380381;32;20169;-77
2023/10/14 01:30:25;;;;;;;30.12;14.15;;;;;;;19.30;77.86;97805.75;4380896;32;20166;-77
2023/10/14 01:32:57;;;;;;;32.13;15.05;;;;;;;19.40;77.28;97799.75;4380820;32;20753;-77
2023/10/14 01:35:45;;;;;;;31.95;15.07;;;;;;;19.21;77.89;97790.78;4379407;32;20125;-77
2023/10/14 01:38:13;;;;;;;32.70;15.20;;;;;;;19.16;77.93;97784.31;4380703;32;20495;-77
2023/10/14 01:40:48;;;;;;;29.30;14.95;;;;;;;19.16;78.76;97790.34;4380360;32;20510;-77
2023/10/14 01:43:16;;;;;;;31.62;15.13;;;;;;;19.02;79.52;97788.00;4380808;32;20103;-77
2023/10/14 01:48:19;;;;;;;31.70;14.07;;;;;;;18.79;80.78;97764.56;4380351;32;20090;-77
2023/10/14 01:50:57;;;;;;;32.60;14.63;;;;;;;18.84;80.27;97758.16;4380069;32;20425;-77
2023/10/14 01:53:32;;;;;;;34.38;15.02;;;;;;;18.71;81.16;97760.91;4380748;32;20091;-77
2023/10/14 01:56:01;;;;;;;32.40;15.00;;;;;;;18.84;80.47;97756.38;4380151;32;20134;-77
2023/10/14 01:58:30;;;;;;;29.02;15.05;;;;;;;18.82;80.73;97754.81;4380659;32;20570;-77
2023/10/14 02:03:51;;;;;;;26.80;14.25;;;;;;;18.73;80.37;97745.94;4380607;32;20131;-77
2023/10/14 02:06:21;;;;;;;30.73;15.18;;;;;;;18.89;79.47;97741.12;4379517;32;20615;-77
2023/10/14 02:08:52;;;;;;;31.35;14.68;;;;;;;19.02;78.82;97754.84;4379952;32;20095;-77
2023/10/14 02:11:32;;;;;;;32.92;14.55;;;;;;;19.01;78.52;97747.97;4380646;32;20074;-77
2023/10/14 02:14:06;;;;;;;31.23;16.23;;;;;;;19.13;77.43;97740.91;4380622;32;20099;-77
2023/10/14 02:16:42;;;;;;;32.42;14.85;;;;;;;18.86;77.86;97753.63;4380167;32;20206;-77
2023/10/14 02:19:21;;;;;;;38.05;16.17;;;;;;;19.23;76.41;97744.41;4380578;32;20548;-77
2023/10/14 02:21:59;;;;;;;33.22;15.48;;;;;;;19.33;75.27;97732.22;4379557;32;20134;-77
2023/10/14 02:24:30;;;;;;;32.25;14.65;;;;;;;19.17;75.58;97742.31;4380160;32;20145;-77
2023/10/14 02:26:57;;;;;;;29.40;14.18;;;;;;;19.13;75.69;97730.44;4379353;32;20114;-77
2023/10/14 02:29:24;;;;;;;34.50;15.05;;;;;;;19.41;74.25;97725.53;4379829;32;20398;-77
2023/10/14 02:31:51;;;;;;;33.30;15.48;;;;;;;19.10;75.90;97727.25;4380421;32;20099;-77
2023/10/14 02:34:18;;;;;;;30.27;15.10;;;;;;;18.97;76.46;97725.66;4380381;32;20182;-77
2023/10/14 02:36:48;;;;;;;32.55;15.02;;;;;;;19.29;74.78;97735.25;4380074;32;20102;-77
2023/10/14 02:39:17;;;;;;;29.60;15.27;;;;;;;19.22;75.14;97729.69;4380412;32;20105;-77
2023/10/14 02:41:58;;;;;;;32.67;15.88;;;;;;;19.03;76.16;97726.91;4379195;32;20086;-77
2023/10/14 02:44:28;;;;;;;31.15;15.40;;;;;;;18.97;77.15;97719.59;4378976;32;20157;-77
2023/10/14 02:47:01;;;;;;;34.72;15.68;;;;;;;18.92;77.79;97722.56;4380271;32;20447;-77
2023/10/14 02:49:34;;;;;;;29.50;15.23;;;;;;;18.79;78.69;97719.31;4380348;32;20086;-77
2023/10/14 02:52:08;;;;;;;29.60;15.52;;;;;;;18.86;78.10;97728.31;4379945;32;20162;-77
2023/10/14 02:54:39;;;;;;;34.65;16.55;;;;;;;19.02;77.65;97714.81;4380229;32;20163;-77
2023/10/14 02:59:48;;;;;;;33.80;16.25;;;;;;;18.95;77.64;97721.50;4380251;32;20103;-77
2023/10/14 03:07:27;;;;;;;31.95;16.17;;;;;;;18.53;81.06;97715.34;4379120;32;20174;-77
2023/10/14 03:09:58;;;;;;;36.03;16.50;;;;;;;18.52;80.06;97713.69;4378836;32;20098;-77
2023/10/14 03:12:25;;;;;;;33.60;16.23;;;;;;;18.54;80.36;97699.53;4378773;32;20108;-77
2023/10/14 03:14:53;;;;;;;33.97;17.23;;;;;;;18.64;80.15;97699.63;4380157;32;20138;-77
2023/10/14 03:17:25;;;;;;;41.88;18.98;;;;;;;18.32;82.01;97694.38;4379964;32;20090;-77
2023/10/14 03:19:53;;;;;;;33.60;17.75;;;;;;;18.33;82.12;97696.03;4378564;32;20095;-77
2023/10/14 03:22:22;;;;;;;32.90;17.35;;;;;;;18.31;82.63;97683.09;4380024;32;20153;-77
2023/10/14 03:25:02;;;;;;;36.22;16.48;;;;;;;18.54;81.44;97688.25;4378889;32;20115;-77
2023/10/14 03:27:32;;;;;;;33.25;16.83;;;;;;;18.37;82.40;97684.37;4379736;32;20490;-77
2023/10/14 03:29:59;;;;;;;32.05;16.45;;;;;;;18.80;80.20;97671.31;4379985;32;20099;-77
2023/10/14 03:32:32;;;;;;;36.78;17.05;;;;;;;18.69;80.68;97680.03;4378602;32;20129;-77
2023/10/14 03:35:10;;;;;;;34.92;16.27;;;;;;;18.84;79.53;97683.19;4380068;32;20114;-78
2023/10/14 03:37:52;;;;;;;33.03;16.77;;;;;;;18.28;83.10;97687.72;4378829;32;20098;-78
2023/10/14 03:43:08;;;;;;;31.85;17.27;;;;;;;18.72;79.92;97682.41;4379976;32;20130;-77
2023/10/14 03:45:47;;;;;;;35.90;16.40;;;;;;;19.11;78.15;97682.66;4379901;32;20395;-80
2023/10/14 03:48:15;;;;;;;33.00;17.08;;;;;;;19.07;77.72;97681.28;4378500;32;20114;-78
2023/10/14 03:50:42;;;;;;;34.30;16.50;;;;;;;19.03;77.67;97680.72;4378764;32;20137;-77
2023/10/14 03:53:12;;;;;;;36.30;16.30;;;;;;;19.13;77.59;97690.38;4379825;32;20426;-77
2023/10/14 03:55:39;;;;;;;34.38;16.45;;;;;;;19.20;76.87;97694.16;4379381;32;20173;-77
2023/10/14 03:58:06;;;;;;;34.15;17.48;;;;;;;19.30;75.60;97695.88;4379776;32;20159;-77
2023/10/14 04:00:39;;;;;;;35.90;16.95;;;;;;;19.68;73.79;97698.87;4379486;32;20075;-77
2023/10/14 04:03:11;;;;;;;35.03;16.83;;;;;;;19.81;72.74;97702.09;4378715;32;20079;-77
2023/10/14 04:05:52;;;;;;;31.23;15.77;;;;;;;20.06;71.34;97700.81;4379832;32;20117;-78
2023/10/14 04:08:30;;;;;;;31.87;16.33;;;;;;;20.31;69.45;97702.09;4378139;32;20133;-77
2023/10/14 04:11:35;;;;;;;35.22;15.60;;;;;;;20.44;68.81;97692.25;4379674;32;20086;-78
2023/10/14 04:14:14;;;;;;;32.78;15.60;;;;;;;20.14;70.12;97691.31;4376945;32;20095;-77
2023/10/14 04:19:27;;;;;;;33.35;16.75;;;;;;;19.70;72.62;97682.09;4379635;32;20114;-78
2023/10/14 04:22:01;;;;;;;34.25;16.00;;;;;;;19.81;72.57;97695.06;4378380;32;20091;-77
2023/10/14 04:27:45;;;;;;;37.42;17.77;;;;;;;20.37;69.21;97691.09;4379503;32;20098;-77
2023/10/14 04:29:51;;;;;;;30.83;16.67;;;;;;;19.02;74.71;97688.66;4371045;32;20087;-78
2023/10/14 04:32:27;;;;;;;36.17;17.48;;;;;;;20.38;66.84;97684.87;4378394;32;20182;-78
2023/10/14 04:34:56;;;;;;;35.60;16.58;;;;;;;19.56;69.84;97683.22;4379559;32;20075;-78
2023/10/14 04:37:27;;;;;;;31.25;16.58;;;;;;;19.86;69.92;97681.56;4378883;32;20161;-78
2023/10/14 04:39:59;;;;;;;33.97;16.83;;;;;;;20.60;66.16;97681.22;4379464;32;20166;-78
2023/10/14 04:42:36;;;;;;;36.00;17.33;;;;;;;20.23;67.98;97682.66;4379401;32;20083;-77
2023/10/14 04:45:05;;;;;;;36.58;16.70;;;;;;;20.02;69.49;97686.34;4379352;32;20102;-77
2023/10/14 04:47:38;;;;;;;39.60;17.12;;;;;;;19.33;74.67;97677.31;4379134;32;20154;-77
2023/10/14 04:50:18;;;;;;;35.40;16.77;;;;;;;19.84;71.90;97680.88;4378891;32;20090;-77
2023/10/14 04:52:48;;;;;;;33.17;16.23;;;;;;;20.26;69.27;97676.31;4379217;32;20091;-77
2023/10/14 04:55:28;;;;;;;34.15;16.90;;;;;;;19.83;71.22;97679.22;4379177;32;20105;-77
2023/10/14 05:00:42;;;;;;;36.03;16.80;;;;;;;20.65;66.62;97674.63;4379202;32;20190;-77
2023/10/14 05:03:12;;;;;;;32.03;16.33;;;;;;;19.59;70.42;97682.16;4378912;32;20177;-77
2023/10/14 05:05:41;;;;;;;35.85;17.33;;;;;;;19.52;71.53;97678.38;4378532;32;20105;-77
2023/10/14 05:08:14;;;;;;;34.38;17.37;;;;;;;19.09;74.01;97671.53;4378771;32;20450;-77
2023/10/14 05:10:44;;;;;;;34.35;16.60;;;;;;;19.11;73.92;97679.22;4378638;32;20099;-78
2023/10/14 05:13:12;;;;;;;30.42;17.33;;;;;;;18.63;77.84;97679.69;4378889;32;20105;-78
2023/10/14 05:15:52;;;;;;;32.97;16.30;;;;;;;18.85;76.90;97684.84;4378804;32;20105;-78
2023/10/14 05:18:29;;;;;;;34.10;16.58;;;;;;;18.64;77.97;97676.09;4377388;32;20114;-77
2023/10/14 05:21:35;;;;;;;39.35;17.05;;;;;;;19.09;75.77;97676.75;4378648;32;20466;-78
2023/10/14 05:24:06;;;;;;;34.35;18.55;;;;;;;18.88;77.57;97694.22;4378644;32;20082;-78
2023/10/14 05:26:36;;;;;;;33.95;16.75;;;;;;;18.81;77.23;97687.81;4380396;32;20082;-78
2023/10/14 05:29:19;;;;;;;33.67;16.40;;;;;;;19.11;75.43;97685.28;4380655;32;20166;-77
2023/10/14 05:31:50;;;;;;;30.75;15.50;;;;;;;19.58;72.22;97686.56;4380454;32;20107;-78
2023/10/14 05:34:21;;;;;;;35.97;16.02;;;;;;;19.72;72.02;97703.72;4380645;32;20090;-77
2023/10/14 05:36:52;;;;;;;40.58;17.30;;;;;;;19.61;72.21;97688.91;4380757;32;20102;-78
2023/10/14 05:39:20;;;;;;;34.28;16.95;;;;;;;19.51;72.98;97695.84;4380439;32;20117;-78
2023/10/14 05:41:48;;;;;;;36.13;16.62;;;;;;;19.07;74.91;97687.34;4380837;32;20114;-78
2023/10/14 05:44:15;;;;;;;38.88;17.87;;;;;;;18.72;77.75;97681.56;4380614;32;20101;-78
2023/10/14 05:46:42;;;;;;;36.40;17.05;;;;;;;18.86;78.17;97680.44;4380393;32;20156;-78
2023/10/14 05:49:10;;;;;;;33.22;16.58;;;;;;;18.91;78.21;97683.50;4380534;32;20095;-78
2023/10/14 05:51:37;;;;;;;32.17;15.77;;;;;;;19.15;77.13;97683.28;4380640;32;20169;-78
2023/10/14 05:54:04;;;;;;;31.92;15.68;;;;;;;18.86;78.40;97683.87;4380392;32;20094;-78
2023/10/14 05:56:31;;;;;;;31.08;15.13;;;;;;;19.13;76.83;97691.22;4379263;32;20105;-78
2023/10/14 05:59:00;;;;;;;33.00;16.05;;;;;;;19.59;74.97;97697.88;4380546;32;20539;-78
2023/10/14 06:01:27;;;;;;;33.92;15.77;;;;;;;19.91;72.63;97687.25;4380173;32;20113;-78
2023/10/14 06:03:56;;;;;;;30.15;16.52;;;;;;;20.07;71.68;97679.72;4380552;32;20082;-78
2023/10/14 06:06:23;;;;;;;30.88;15.85;;;;;;;20.05;71.03;97684.25;4380388;32;20456;-78
2023/10/14 06:08:50;;;;;;;33.15;15.00;;;;;;;20.13;71.16;97688.84;4379803;32;20110;-78
2023/10/14 06:11:17;;;;;;;30.00;14.60;;;;;;;20.64;68.26;97685.25;4380452;32;20133;-79
2023/10/14 06:13:44;;;;;;;29.12;14.05;;;;;;;20.68;67.71;97687.44;4380281;32;20140;-78
2023/10/14 06:16:12;;;;;;;28.60;14.25;;;;;;;20.91;67.14;97685.38;4380311;32;20079;-79
2023/10/14 06:18:40;;;;;;;28.23;14.15;;;;;;;21.01;66.52;97680.12;4380359;32;20099;-79
2023/10/14 06:21:10;;;;;;;31.73;14.82;;;;;;;21.14;66.05;97678.03;4380028;32;20791;-79
2023/10/14 06:23:46;;;;;;;27.23;14.87;;;;;;;21.13;65.98;97675.53;4380440;32;20101;-78
2023/10/14 06:26:17;;;;;;;27.52;13.25;;;;;;;21.11;65.97;97673.06;4380187;32;20137;-79
2023/10/14 06:28:44;;;;;;;29.90;14.25;;;;;;;21.17;65.42;97671.69;4379919;32;20106;-79
2023/10/14 06:31:12;;;;;;;24.42;13.57;;;;;;;21.43;64.34;97669.31;4380349;32;20500;-79
2023/10/14 06:33:43;;;;;;;26.62;13.73;;;;;;;21.06;65.79;97655.13;4380363;32;20082;-79
2023/10/14 06:36:14;;;;;;;27.77;13.68;;;;;;;21.73;63.59;97663.81;4379579;32;20091;-78
2023/10/14 06:38:44;;;;;;;25.27;13.25;;;;;;;22.20;61.67;97658.47;4380288;32;20118;-78
2023/10/14 06:41:13;;;;;;;26.15;13.73;;;;;;;21.67;62.84;97664.38;4380227;32;20103;-78
2023/10/14 06:43:43;;;;;;;28.12;13.62;;;;;;;22.15;61.57;97674.69;4379905;32;20095;-79
2023/10/14 06:46:12;;;;;;;28.80;13.57;;;;;;;22.08;61.22;97678.88;4380155;32;20158;-79
2023/10/14 06:48:39;;;;;;;25.92;14.05;;;;;;;22.54;59.82;97690.19;4380131;32;20095;-79
2023/10/14 06:51:09;;;;;;;26.17;13.30;;;;;;;22.43;59.96;97683.34;4379880;32;20434;-78
2023/10/14 06:53:36;;;;;;;28.23;13.10;;;;;;;22.68;59.70;97681.81;4380186;32;20173;-79
2023/10/14 06:56:04;;;;;;;26.87;12.85;;;;;;;22.61;59.95;97685.19;4378452;32;20087;-78
2023/10/14 06:58:33;;;;;;;24.48;12.30;;;;;;;23.42;57.67;97685.06;4380200;32;20170;-79
2023/10/14 07:01:00;;;;;;;24.65;12.32;;;;;;;23.24;57.52;97683.28;4380185;32;20137;-79
2023/10/14 07:03:28;;;;;;;22.95;12.27;;;;;;;23.28;57.52;97687.25;4379717;32;20086;-79
2023/10/14 07:08:24;;;;;;;23.23;12.63;;;;;;;23.45;56.56;97690.84;4379805;32;20187;-79
2023/10/14 07:10:54;;;;;;;21.85;11.25;;;;;;;23.29;56.73;97683.66;4379722;32;20130;-79
2023/10/14 07:13:22;;;;;;;24.27;12.15;;;;;;;23.19;57.17;97679.47;4378897;32;20144;-79
2023/10/14 07:15:51;;;;;;;22.98;11.82;;;;;;;23.84;55.59;97690.44;4379971;32;20108;-79
2023/10/14 07:18:24;;;;;;;26.17;12.45;;;;;;;24.31;54.14;97693.44;4379613;32;20103;-79
2023/10/14 07:20:59;;;;;;;23.85;11.70;;;;;;;24.48;53.32;97694.31;4379976;32;20118;-79
2023/10/14 07:23:28;;;;;;;31.07;12.77;;;;;;;24.72;52.76;97691.72;4378943;32;20090;-79
2023/10/14 07:25:57;;;;;;;21.85;11.55;;;;;;;24.89;51.43;97687.28;4379411;32;20243;-79
2023/10/14 07:28:25;;;;;;;24.00;12.25;;;;;;;23.76;54.51;97693.03;4379954;32;20111;-79
2023/10/14 07:30:55;;;;;;;22.58;12.30;;;;;;;23.82;54.55;97689.75;4379838;32;20113;-79
2023/10/14 07:33:22;;;;;;;24.25;11.52;;;;;;;23.97;53.94;97700.53;4378808;32;20095;-79
2023/10/14 07:35:49;;;;;;;22.65;12.02;;;;;;;24.14;53.91;97704.91;4379678;32;20242;-79
2023/10/14 07:38:16;;;;;;;24.92;11.90;;;;;;;23.92;54.50;97703.62;4379547;32;20103;-80
2023/10/14 07:40:43;;;;;;;24.73;12.52;;;;;;;23.98;53.75;97689.00;4379819;32;20106;-79
2023/10/14 07:43:12;;;;;;;24.80;11.32;;;;;;;23.85;54.85;97700.00;4379826;32;20410;-79
2023/10/14 07:45:44;;;;;;;27.80;13.18;;;;;;;23.63;55.08;97699.53;4379507;32;20082;-79
2023/10/14 07:48:12;;;;;;;22.65;12.43;;;;;;;23.55;55.09;97699.47;4377811;32;20099;-79
2023/10/14 07:50:41;;;;;;;23.10;12.23;;;;;;;23.32;56.04;97695.69;4378533;32;20174;-79
2023/10/14 07:53:12;;;;;;;22.33;11.80;;;;;;;23.70;55.85;97702.34;4379395;32;20101;-79
2023/10/14 07:55:49;;;;;;;24.05;11.85;;;;;;;23.55;55.75;97693.38;4379761;32;20393;-79
2023/10/14 07:58:26;;;;;;;24.90;11.55;;;;;;;24.34;53.92;97698.38;4378722;32;20107;-79
2023/10/14 08:00:54;;;;;;;22.50;11.38;;;;;;;24.84;52.31;97686.94;4379486;32;20094;-79
2023/10/14 08:03:24;;;;;;;23.42;12.40;;;;;;;25.18;51.56;97683.34;4379730;32;20440;-80
2023/10/14 08:05:54;;;;;;;23.73;11.60;;;;;;;24.71;52.12;97673.41;4379612;32;20090;-79
2023/10/14 08:08:22;;;;;;;22.42;11.80;;;;;;;24.50;53.06;97687.06;4379076;32;20114;-79
2023/10/14 08:10:51;;;;;;;24.50;12.25;;;;;;;24.69;52.72;97683.31;4379583;32;20109;-79
2023/10/14 08:13:22;;;;;;;21.67;11.75;;;;;;;24.85;52.16;97685.94;4379254;32;20107;-79
2023/10/14 08:15:53;;;;;;;24.33;12.25;;;;;;;25.36;50.71;97682.19;4378469;32;20137;-80
2023/10/14 08:18:25;;;;;;;24.55;11.82;;;;;;;25.16;50.80;97667.66;4378493;32;20102;-80
2023/10/14 08:20:55;;;;;;;23.10;11.95;;;;;;;25.39;50.39;97665.16;4379260;32;20113;-80
2023/10/14 08:23:24;;;;;;;25.48;12.10;;;;;;;25.26;50.34;97667.50;4378327;32;20453;-80
2023/10/14 08:25:54;;;;;;;22.80;11.65;;;;;;;25.36;50.15;97661.03;4378231;32;20074;-80
2023/10/14 08:28:21;;;;;;;21.75;12.32;;;;;;;25.43;49.97;97665.66;4379167;32;20149;-80
2023/10/14 08:30:51;;;;;;;24.48;12.25;;;;;;;25.78;49.57;97675.84;4379246;32;20098;-80
2023/10/14 08:33:23;;;;;;;24.63;12.13;;;;;;;25.49;49.71;97671.09;4378267;32;20124;-80
2023/10/14 08:35:52;;;;;;;26.37;12.43;;;;;;;25.30;50.35;97666.97;4378928;32;20079;-80
2023/10/14 08:38:22;;;;;;;24.10;11.80;;;;;;;25.62;49.15;97666.09;4379394;32;20425;-80
2023/10/14 08:40:53;;;;;;;22.20;11.82;;;;;;;25.83;48.40;97667.38;4379256;32;20165;-80
2023/10/14 08:43:22;;;;;;;22.80;12.07;;;;;;;25.85;48.53;97657.50;4377852;32;20462;-80
2023/10/14 08:45:49;;;;;;;22.55;11.73;;;;;;;25.83;48.51;97662.09;4379109;32;20078;-80
2023/10/14 08:48:18;;;;;;;24.87;10.77;;;;;;;26.33;46.99;97663.53;4377779;32;20138;-80
2023/10/14 08:50:45;;;;;;;23.48;11.35;;;;;;;26.44;47.12;97663.16;4378931;32;20106;-80
2023/10/14 08:53:13;;;;;;;21.48;12.07;;;;;;;26.33;46.88;97660.87;4377909;32;20602;-80
2023/10/14 08:55:40;;;;;;;21.85;11.35;;;;;;;26.39;46.51;97654.94;4378719;32;20409;-80
2023/10/14 08:58:13;;;;;;;24.52;11.45;;;;;;;26.74;46.57;97651.72;4379048;32;20146;-80
2023/10/14 09:00:43;;;;;;;33.63;12.18;;;;;;;27.06;45.21;97655.13;4381004;32;20128;-80
2023/10/14 09:03:11;;;;;;;22.35;10.70;;;;;;;27.31;44.95;97659.19;4380606;32;20193;-80
2023/10/14 09:05:44;;;;;;;21.05;10.55;;;;;;;28.03;43.78;97665.72;4379721;32;20109;-80
2023/10/14 09:08:14;;;;;;;23.65;10.95;;;;;;;28.41;42.77;97674.38;4380724;32;20099;-80
2023/10/14 09:10:42;;;;;;;22.35;10.77;;;;;;;28.68;41.76;97668.31;4379450;32;20111;-80
2023/10/14 09:13:11;;;;;;;19.80;10.00;;;;;;;28.62;41.31;97661.13;4380844;32;20135;-80
2023/10/14 09:15:42;;;;;;;22.40;11.70;;;;;;;28.43;42.13;97659.09;4380856;32;20090;-80
2023/10/14 09:18:17;;;;;;;19.62;10.32;;;;;;;28.24;42.40;97660.47;4380484;32;20133;-80
2023/10/14 09:20:45;;;;;;;22.45;11.32;;;;;;;28.81;40.97;97647.19;4379660;32;20126;-80
2023/10/14 09:23:16;;;;;;;15.68;9.73;;;;;;;28.40;41.96;97652.31;4379418;32;20091;-79
2023/10/14 09:25:56;;;;;;;21.37;10.23;;;;;;;28.71;41.19;97652.03;4380835;32;20079;-80
2023/10/14 09:28:28;;;;;;;20.48;10.00;;;;;;;28.61;40.91;97648.88;4376276;32;147149;-80
2023/10/14 09:30:58;;;;;;;19.55;10.15;;;;;;;28.69;41.32;97658.53;4380390;32;20113;-79
2023/10/14 09:33:28;;;;;;;18.62;9.13;;;;;;;28.65;40.89;97666.06;4380770;32;20125;-80
2023/10/14 09:35:59;;;;;;;22.83;10.48;;;;;;;28.89;40.44;97656.09;4380646;32;20125;-80
2023/10/14 09:38:27;;;;;;;19.00;10.55;;;;;;;29.06;40.07;97666.25;4380391;32;20114;-80
2023/10/14 09:41:02;;;;;;;16.75;9.35;;;;;;;28.70;40.90;97658.31;4379526;32;20125;-79
2023/10/14 09:43:33;;;;;;;23.55;9.27;;;;;;;29.49;39.62;97662.72;4380769;32;20728;-80
2023/10/14 09:46:08;;;;;;;19.58;9.07;;;;;;;29.80;38.60;97660.47;4380218;32;20516;-79
2023/10/14 09:48:36;;;;;;;16.83;8.77;;;;;;;29.54;38.65;97654.97;4379624;32;20179;-80
2023/10/14 09:51:05;;;;;;;18.12;8.93;;;;;;;29.63;38.38;97645.81;4380524;32;20132;-80
2023/10/14 09:53:34;;;;;;;17.58;9.57;;;;;;;29.63;38.59;97640.50;4380220;32;20086;-80
2023/10/14 09:56:07;;;;;;;16.67;9.20;;;;;;;29.42;38.81;97641.38;4380613;32;20079;-79
2023/10/14 09:58:36;;;;;;;17.58;9.50;;;;;;;28.94;40.21;97651.84;4380306;32;20142;-79
2023/10/14 10:01:05;;;;;;;16.50;8.68;;;;;;;29.10;40.18;97643.59;4380557;32;20102;-79
2023/10/14 10:04:02;;;;;;;16.67;8.40;;;;;;;29.33;39.38;97640.69;4380560;32;20097;-79
2023/10/14 10:06:43;;;;;;;15.35;8.25;;;;;;;29.53;39.68;97638.19;4380032;32;20106;-79
2023/10/14 10:09:52;;;;;;;16.08;8.45;;;;;;;30.34;38.01;97641.06;4380314;32;20098;-80
2023/10/14 10:12:21;;;;;;;15.05;8.02;;;;;;;30.59;36.99;97635.16;4364904;32;20122;-79
2023/10/14 10:14:57;;;;;;;16.65;7.95;;;;;;;30.69;37.07;97633.78;4379349;32;20517;-79
2023/10/14 10:17:24;;;;;;;19.52;8.05;;;;;;;30.32;37.66;97629.78;4380383;32;20433;-79
2023/10/14 10:20:08;;;;;;;15.68;8.52;;;;;;;30.68;36.77;97626.81;4378932;32;20458;-79
2023/10/14 10:22:41;;;;;;;18.80;8.32;;;;;;;30.45;37.31;97631.66;4380471;32;20505;-80
2023/10/14 10:25:11;;;;;;;17.52;8.10;;;;;;;31.17;36.57;97630.13;4380338;32;20409;-80
2023/10/14 10:27:40;;;;;;;15.07;7.45;;;;;;;31.25;36.30;97630.72;4380032;32;20460;-79
2023/10/14 10:30:11;;;;;;;15.20;8.02;;;;;;;31.51;35.20;97629.87;4380262;32;20094;-80
2023/10/14 10:32:38;;;;;;;15.05;7.60;;;;;;;32.32;34.28;97624.06;4380351;32;20103;-80
2023/10/14 10:35:05;;;;;;;18.40;8.02;;;;;;;31.54;35.57;97631.31;4379856;32;20426;-79
2023/10/14 10:37:52;;;;;;;14.85;7.40;;;;;;;31.81;34.61;97618.75;4380246;32;20083;-79
2023/10/14 10:40:26;;;;;;;16.60;7.57;;;;;;;31.44;35.54;97620.25;4379181;32;20102;-79
2023/10/14 10:43:10;;;;;;;15.40;7.62;;;;;;;32.00;34.90;97614.34;4380358;32;20152;-79
2023/10/14 10:45:42;;;;;;;16.62;7.72;;;;;;;32.76;33.29;97606.34;4380345;32;20438;-79
2023/10/14 10:48:16;;;;;;;14.60;7.97;;;;;;;32.34;33.78;97616.69;4378924;32;20103;-79
2023/10/14 10:50:50;;;;;;;15.93;7.50;;;;;;;32.40;34.16;97607.81;4380146;32;20090;-79
2023/10/14 10:53:20;;;;;;;16.50;7.82;;;;;;;33.07;32.70;97608.16;4380275;32;20125;-79
2023/10/14 10:55:50;;;;;;;15.90;7.40;;;;;;;33.19;32.06;97605.59;4378550;32;20086;-79
2023/10/14 10:58:19;;;;;;;15.02;7.90;;;;;;;32.78;32.69;97601.59;4380141;32;20463;-79
2023/10/14 11:00:47;;;;;;;14.75;7.25;;;;;;;32.95;31.95;97604.56;4380130;32;20118;-79
2023/10/14 11:03:15;;;;;;;13.07;6.32;;;;;;;33.08;32.00;97591.91;4379797;32;20157;-80
2023/10/14 11:05:44;;;;;;;13.27;6.60;;;;;;;33.81;30.97;97584.97;4380112;32;20106;-80
2023/10/14 11:08:15;;;;;;;14.93;6.97;;;;;;;33.93;30.60;97589.41;4379859;32;20366;-80
2023/10/14 11:10:44;;;;;;;15.07;6.93;;;;;;;33.65;30.85;97586.41;4379749;32;20095;-80
2023/10/14 11:13:13;;;;;;;13.57;5.62;;;;;;;34.12;29.10;97579.44;4380010;32;20110;-80
2023/10/14 11:15:42;;;;;;;14.10;6.70;;;;;;;33.92;29.61;97576.22;4379773;32;20135;-79
2023/10/14 11:18:10;;;;;;;21.35;6.45;;;;;;;33.23;30.12;97583.53;4380103;32;20409;-79
2023/10/14 11:20:49;;;;;;;15.05;5.95;;;;;;;33.49;29.36;97569.09;4379091;32;20091;-80
2023/10/14 11:23:17;;;;;;;13.23;5.82;;;;;;;32.83;30.00;97566.22;4378472;32;20094;-80
2023/10/14 11:25:46;;;;;;;13.32;5.90;;;;;;;32.06;30.86;97578.81;4380004;32;20087;-80
2023/10/14 11:28:14;;;;;;;14.18;5.68;;;;;;;32.49;29.36;97568.31;4380029;32;20141;-80
2023/10/14 11:30:45;;;;;;;12.37;5.65;;;;;;;32.12;30.30;97572.66;4379506;32;20543;-80
2023/10/14 11:33:14;;;;;;;14.48;5.85;;;;;;;33.21;28.53;97564.22;4380085;32;20449;-79
2023/10/14 11:35:41;;;;;;;14.77;6.07;;;;;;;32.81;29.46;97577.09;4379908;32;20126;-80
2023/10/14 11:38:13;;;;;;;12.52;5.55;;;;;;;32.95;29.07;97575.97;4379424;32;20087;-80
2023/10/14 11:40:47;;;;;;;11.65;5.70;;;;;;;32.13;29.71;97575.09;4379954;32;20110;-79
2023/10/14 11:43:16;;;;;;;11.45;5.00;;;;;;;31.26;31.45;97578.25;4378851;32;20485;-80
2023/10/14 11:45:43;;;;;;;15.75;5.95;;;;;;;32.61;29.62;97574.59;4379344;32;20174;-80
2023/10/14 11:48:23;;;;;;;11.23;5.78;;;;;;;33.29;28.55;97563.94;4379949;32;20070;-80
2023/10/14 11:51:03;;;;;;;13.32;5.35;;;;;;;33.34;28.17;97569.44;4379524;32;20162;-79
2023/10/14 11:53:32;;;;;;;12.23;5.47;;;;;;;33.33;28.65;97573.16;4380030;32;20472;-79
2023/10/14 11:56:00;;;;;;;15.00;5.50;;;;;;;33.46;28.04;97566.88;4379262;32;20091;-78
2023/10/14 11:58:29;;;;;;;13.18;6.00;;;;;;;33.82;27.92;97568.72;4379553;32;20133;-79
2023/10/14 12:00:56;;;;;;;11.77;5.22;;;;;;;33.27;28.81;97562.50;4379672;32;20468;-78
2023/10/14 12:03:27;;;;;;;11.45;4.87;;;;;;;33.78;28.23;97558.69;4378478;32;20125;-80
2023/10/14 12:05:58;;;;;;;12.82;5.00;;;;;;;32.84;28.91;97560.66;4379333;32;20103;-79
2023/10/14 12:08:26;;;;;;;11.45;5.18;;;;;;;32.05;30.00;97571.84;4379521;32;20080;-79
2023/10/14 12:10:53;;;;;;;14.32;5.70;;;;;;;31.14;31.87;97570.03;4379644;32;20134;-79
2023/10/14 12:13:21;;;;;;;14.00;6.15;;;;;;;31.64;31.87;97562.34;4379284;32;20170;-79
2023/10/14 12:16:04;;;;;;;16.65;7.07;;;;;;;30.31;33.95;97558.97;4379571;32;20087;-79